sensor_id;sensor_type;location;lat;lon;timestamp;temperature;humidity
15765;DHT22;7983;50.744;7.086;2024-02-23T00:00:20;7.50;99.90
15765;DHT22;7983;50.744;7.086;2024-02-23T00:02:45;7.40;99.90
15765;DHT22;7983;50.744;7.086;2024-02-23T00:05:13;7.40;99.90
15765;DHT22;7983;50.744;7.086;2024-02-23T00:07:39;7.30;99.90
15765;DHT22;7983;50.744;7.086;2024-02-23T00:10:07;7.20;99.90
15765;DHT22;7983;50.744;7.086;2024-02-23T00:12:38;7.20;99.90
15765;DHT22;7983;50.744;7.086;2024-02-23T00:15:09;7.20;99.90
15765;DHT22;7983;50.744;7.086;2024-02-23T00:17:34;7.10;99.90
15765;DHT22;7983;50.744;7.086;2024-02-23T00:20:04;7.10;99.90
15765;DHT22;7983;50.744;7.086;2024-02-23T00:22:30;7.10;99.90
15765;DHT22;7983;50.744;7.086;2024-02-23T00:24:58;7.10;99.90
15765;DHT22;7983;50.744;7.086;2024-02-23T00:27:23;7.20;99.90
15765;DHT22;7983;50.744;7.086;2024-02-23T00:29:49;7.20;99.90
15765;DHT22;7983;50.744;7.086;2024-02-23T00:32:17;7.20;99.90
15765;DHT22;7983;50.744;7.086;2024-02-23T00:34:42;7.30;99.90
15765;DHT22;7983;50.744;7.086;2024-02-23T00:37:08;7.30;99.90
15765;DHT22;7983;50.744;7.086;2024-02-23T00:39:36;7.30;99.90
15765;DHT22;7983;50.744;7.086;2024-02-23T00:42:03;7.30;99.90
15765;DHT22;7983;50.744;7.086;2024-02-23T00:44:31;7.30;99.90
15765;DHT22;7983;50.744;7.086;2024-02-23T00:46:56;7.30;99.90
15765;DHT22;7983;50.744;7.086;2024-02-23T00:49:28;7.30;99.90
15765;DHT22;7983;50.744;7.086;2024-02-23T00:51:55;7.30;99.90
15765;DHT22;7983;50.744;7.086;2024-02-23T00:54:23;7.30;99.90
15765;DHT22;7983;50.744;7.086;2024-02-23T00:56:48;7.20;99.90
15765;DHT22;7983;50.744;7.086;2024-02-23T00:59:14;7.20;99.90
15765;DHT22;7983;50.744;7.086;2024-02-23T01:01:40;7.20;99.90
15765;DHT22;7983;50.744;7.086;2024-02-23T01:04:05;7.10;99.90
15765;DHT22;7983;50.744;7.086;2024-02-23T01:06:31;7.10;99.90
15765;DHT22;7983;50.744;7.086;2024-02-23T01:08:57;7.10;99.90
15765;DHT22;7983;50.744;7.086;2024-02-23T01:11:22;7.10;99.90
15765;DHT22;7983;50.744;7.086;2024-02-23T01:13:48;7.10;99.90
15765;DHT22;7983;50.744;7.086;2024-02-23T01:16:13;7.10;99.90
15765;DHT22;7983;50.744;7.086;2024-02-23T01:18:42;7.00;99.90
15765;DHT22;7983;50.744;7.086;2024-02-23T01:21:08;7.00;99.90
15765;DHT22;7983;50.744;7.086;2024-02-23T01:23:33;7.00;99.90
15765;DHT22;7983;50.744;7.086;2024-02-23T01:26:01;7.00;99.90
15765;DHT22;7983;50.744;7.086;2024-02-23T01:28:27;7.00;99.90
15765;DHT22;7983;50.744;7.086;2024-02-23T01:30:53;7.00;99.90
15765;DHT22;7983;50.744;7.086;2024-02-23T01:33:19;6.90;99.90
15765;DHT22;7983;50.744;7.086;2024-02-23T01:35:44;6.90;99.90
15765;DHT22;7983;50.744;7.086;2024-02-23T01:38:10;6.90;99.90
15765;DHT22;7983;50.744;7.086;2024-02-23T01:40:46;7.00;99.90
15765;DHT22;7983;50.744;7.086;2024-02-23T01:43:14;6.90;99.90
15765;DHT22;7983;50.744;7.086;2024-02-23T01:45:40;6.90;99.90
15765;DHT22;7983;50.744;7.086;2024-02-23T01:48:08;7.00;99.90
15765;DHT22;7983;50.744;7.086;2024-02-23T01:50:34;6.90;99.90
15765;DHT22;7983;50.744;7.086;2024-02-23T01:53:01;6.90;99.90
15765;DHT22;7983;50.744;7.086;2024-02-23T01:55:31;7.00;99.90
15765;DHT22;7983;50.744;7.086;2024-02-23T01:57:58;6.90;99.90
15765;DHT22;7983;50.744;7.086;2024-02-23T02:00:27;6.90;99.90
15765;DHT22;7983;50.744;7.086;2024-02-23T02:02:57;6.90;99.90
15765;DHT22;7983;50.744;7.086;2024-02-23T02:05:27;7.00;99.90
15765;DHT22;7983;50.744;7.086;2024-02-23T02:07:55;6.90;99.90
15765;DHT22;7983;50.744;7.086;2024-02-23T02:10:24;6.90;99.90
15765;DHT22;7983;50.744;7.086;2024-02-23T02:12:50;7.00;99.90
15765;DHT22;7983;50.744;7.086;2024-02-23T02:15:18;6.90;99.90
15765;DHT22;7983;50.744;7.086;2024-02-23T02:17:45;7.00;99.90
15765;DHT22;7983;50.744;7.086;2024-02-23T02:20:14;7.00;99.90
15765;DHT22;7983;50.744;7.086;2024-02-23T02:22:42;7.00;99.90
15765;DHT22;7983;50.744;7.086;2024-02-23T02:25:08;7.00;99.90
15765;DHT22;7983;50.744;7.086;2024-02-23T02:27:33;7.00;99.90
15765;DHT22;7983;50.744;7.086;2024-02-23T02:29:59;7.10;99.90
15765;DHT22;7983;50.744;7.086;2024-02-23T02:32:24;7.00;99.90
15765;DHT22;7983;50.744;7.086;2024-02-23T02:34:50;7.00;99.90
15765;DHT22;7983;50.744;7.086;2024-02-23T02:37:18;7.00;99.90
15765;DHT22;7983;50.744;7.086;2024-02-23T02:39:43;7.00;99.90
15765;DHT22;7983;50.744;7.086;2024-02-23T02:42:09;7.10;99.90
15765;DHT22;7983;50.744;7.086;2024-02-23T02:44:37;7.00;99.90
15765;DHT22;7983;50.744;7.086;2024-02-23T02:47:02;7.00;99.90
15765;DHT22;7983;50.744;7.086;2024-02-23T02:49:28;7.00;99.90
15765;DHT22;7983;50.744;7.086;2024-02-23T02:51:54;7.10;99.90
15765;DHT22;7983;50.744;7.086;2024-02-23T02:54:19;7.10;99.90
15765;DHT22;7983;50.744;7.086;2024-02-23T02:56:50;7.00;99.90
15765;DHT22;7983;50.744;7.086;2024-02-23T02:59:23;7.00;99.90
15765;DHT22;7983;50.744;7.086;2024-02-23T03:01:49;7.00;99.90
15765;DHT22;7983;50.744;7.086;2024-02-23T03:04:14;7.00;99.90
15765;DHT22;7983;50.744;7.086;2024-02-23T03:06:40;7.10;99.90
15765;DHT22;7983;50.744;7.086;2024-02-23T03:09:06;7.00;99.90
15765;DHT22;7983;50.744;7.086;2024-02-23T03:11:32;7.00;99.90
15765;DHT22;7983;50.744;7.086;2024-02-23T03:14:00;7.00;99.90
15765;DHT22;7983;50.744;7.086;2024-02-23T03:16:26;7.00;99.90
15765;DHT22;7983;50.744;7.086;2024-02-23T03:18:55;7.00;99.90
15765;DHT22;7983;50.744;7.086;2024-02-23T03:21:23;7.00;99.90
15765;DHT22;7983;50.744;7.086;2024-02-23T03:23:49;7.10;99.90
15765;DHT22;7983;50.744;7.086;2024-02-23T03:26:14;7.10;99.90
15765;DHT22;7983;50.744;7.086;2024-02-23T03:28:42;7.10;99.90
15765;DHT22;7983;50.744;7.086;2024-02-23T03:31:10;7.00;99.90
15765;DHT22;7983;50.744;7.086;2024-02-23T03:33:36;7.00;99.90
15765;DHT22;7983;50.744;7.086;2024-02-23T03:36:03;7.10;99.90
15765;DHT22;7983;50.744;7.086;2024-02-23T03:38:31;7.00;99.90
15765;DHT22;7983;50.744;7.086;2024-02-23T03:40:56;7.00;99.90
15765;DHT22;7983;50.744;7.086;2024-02-23T03:43:22;7.00;99.90
15765;DHT22;7983;50.744;7.086;2024-02-23T03:45:48;7.00;99.90
15765;DHT22;7983;50.744;7.086;2024-02-23T03:48:18;7.00;99.90
15765;DHT22;7983;50.744;7.086;2024-02-23T03:50:43;7.00;99.90
15765;DHT22;7983;50.744;7.086;2024-02-23T03:53:11;7.00;99.90
15765;DHT22;7983;50.744;7.086;2024-02-23T03:55:39;7.00;99.90
15765;DHT22;7983;50.744;7.086;2024-02-23T03:58:04;7.00;99.90
15765;DHT22;7983;50.744;7.086;2024-02-23T04:00:30;7.00;99.90
15765;DHT22;7983;50.744;7.086;2024-02-23T04:02:55;7.00;99.90
15765;DHT22;7983;50.744;7.086;2024-02-23T04:05:26;7.00;99.90
15765;DHT22;7983;50.744;7.086;2024-02-23T04:07:51;7.00;99.90
15765;DHT22;7983;50.744;7.086;2024-02-23T04:10:17;7.10;99.90
15765;DHT22;7983;50.744;7.086;2024-02-23T04:12:46;7.00;99.90
15765;DHT22;7983;50.744;7.086;2024-02-23T04:15:12;7.00;99.90
15765;DHT22;7983;50.744;7.086;2024-02-23T04:17:40;7.00;99.90
15765;DHT22;7983;50.744;7.086;2024-02-23T04:20:09;7.00;99.90
15765;DHT22;7983;50.744;7.086;2024-02-23T04:22:36;7.00;99.90
15765;DHT22;7983;50.744;7.086;2024-02-23T04:25:01;7.00;99.90
15765;DHT22;7983;50.744;7.086;2024-02-23T04:27:27;7.00;99.90
15765;DHT22;7983;50.744;7.086;2024-02-23T04:29:53;7.10;99.90
15765;DHT22;7983;50.744;7.086;2024-02-23T04:32:18;7.00;99.90
15765;DHT22;7983;50.744;7.086;2024-02-23T04:34:44;7.10;99.90
15765;DHT22;7983;50.744;7.086;2024-02-23T04:37:09;7.00;99.90
15765;DHT22;7983;50.744;7.086;2024-02-23T04:39:37;7.00;99.90
15765;DHT22;7983;50.744;7.086;2024-02-23T04:42:04;7.00;99.90
15765;DHT22;7983;50.744;7.086;2024-02-23T04:44:30;7.00;99.90
15765;DHT22;7983;50.744;7.086;2024-02-23T04:46:58;7.10;99.90
15765;DHT22;7983;50.744;7.086;2024-02-23T04:49:23;7.10;99.90
15765;DHT22;7983;50.744;7.086;2024-02-23T04:51:49;7.00;99.90
15765;DHT22;7983;50.744;7.086;2024-02-23T04:54:14;7.00;99.90
15765;DHT22;7983;50.744;7.086;2024-02-23T04:56:40;7.00;99.90
15765;DHT22;7983;50.744;7.086;2024-02-23T04:59:08;6.90;99.90
15765;DHT22;7983;50.744;7.086;2024-02-23T05:01:39;6.90;99.90
15765;DHT22;7983;50.744;7.086;2024-02-23T05:04:05;6.90;99.90
15765;DHT22;7983;50.744;7.086;2024-02-23T05:06:31;6.90;99.90
15765;DHT22;7983;50.744;7.086;2024-02-23T05:08:56;6.90;99.90
15765;DHT22;7983;50.744;7.086;2024-02-23T05:11:25;6.90;99.90
15765;DHT22;7983;50.744;7.086;2024-02-23T05:13:53;6.90;99.90
15765;DHT22;7983;50.744;7.086;2024-02-23T05:16:18;6.90;99.90
15765;DHT22;7983;50.744;7.086;2024-02-23T05:18:45;6.90;99.90
15765;DHT22;7983;50.744;7.086;2024-02-23T05:21:14;6.90;99.90
15765;DHT22;7983;50.744;7.086;2024-02-23T05:23:39;6.80;99.90
15765;DHT22;7983;50.744;7.086;2024-02-23T05:26:07;6.80;99.90
15765;DHT22;7983;50.744;7.086;2024-02-23T05:28:33;6.80;99.90
15765;DHT22;7983;50.744;7.086;2024-02-23T05:31:02;6.80;99.90
15765;DHT22;7983;50.744;7.086;2024-02-23T05:33:30;6.80;99.90
15765;DHT22;7983;50.744;7.086;2024-02-23T05:35:58;6.80;99.90
15765;DHT22;7983;50.744;7.086;2024-02-23T05:38:24;6.80;99.90
15765;DHT22;7983;50.744;7.086;2024-02-23T05:40:49;6.80;99.90
15765;DHT22;7983;50.744;7.086;2024-02-23T05:43:17;6.80;99.90
15765;DHT22;7983;50.744;7.086;2024-02-23T05:45:45;6.80;99.90
15765;DHT22;7983;50.744;7.086;2024-02-23T05:48:10;6.70;99.90
15765;DHT22;7983;50.744;7.086;2024-02-23T05:50:37;6.70;99.90
15765;DHT22;7983;50.744;7.086;2024-02-23T05:53:02;6.70;99.90
15765;DHT22;7983;50.744;7.086;2024-02-23T05:55:30;6.70;99.90
15765;DHT22;7983;50.744;7.086;2024-02-23T05:57:55;6.60;99.90
15765;DHT22;7983;50.744;7.086;2024-02-23T06:00:21;6.60;99.90
15765;DHT22;7983;50.744;7.086;2024-02-23T06:02:47;6.60;99.90
15765;DHT22;7983;50.744;7.086;2024-02-23T06:05:15;6.60;99.90
15765;DHT22;7983;50.744;7.086;2024-02-23T06:07:41;6.60;99.90
15765;DHT22;7983;50.744;7.086;2024-02-23T06:10:07;6.60;99.90
15765;DHT22;7983;50.744;7.086;2024-02-23T06:12:33;6.60;99.90
15765;DHT22;7983;50.744;7.086;2024-02-23T06:15:01;6.60;99.90
15765;DHT22;7983;50.744;7.086;2024-02-23T06:17:26;6.60;99.90
15765;DHT22;7983;50.744;7.086;2024-02-23T06:19:52;6.50;99.90
15765;DHT22;7983;50.744;7.086;2024-02-23T06:22:22;6.50;99.90
15765;DHT22;7983;50.744;7.086;2024-02-23T06:24:53;6.50;99.90
15765;DHT22;7983;50.744;7.086;2024-02-23T06:27:19;6.50;99.90
15765;DHT22;7983;50.744;7.086;2024-02-23T06:29:45;6.50;99.90
15765;DHT22;7983;50.744;7.086;2024-02-23T06:32:10;6.60;99.90
15765;DHT22;7983;50.744;7.086;2024-02-23T06:34:36;6.60;99.90
15765;DHT22;7983;50.744;7.086;2024-02-23T06:37:01;6.60;99.90
15765;DHT22;7983;50.744;7.086;2024-02-23T06:39:31;6.60;99.90
15765;DHT22;7983;50.744;7.086;2024-02-23T06:42:01;6.60;99.90
15765;DHT22;7983;50.744;7.086;2024-02-23T06:44:29;6.70;99.90
15765;DHT22;7983;50.744;7.086;2024-02-23T06:46:57;6.80;99.90
15765;DHT22;7983;50.744;7.086;2024-02-23T06:49:22;6.80;99.90
15765;DHT22;7983;50.744;7.086;2024-02-23T06:51:50;6.80;99.90
15765;DHT22;7983;50.744;7.086;2024-02-23T06:54:18;6.80;99.90
15765;DHT22;7983;50.744;7.086;2024-02-23T06:56:48;6.80;99.90
15765;DHT22;7983;50.744;7.086;2024-02-23T06:59:18;6.90;99.90
15765;DHT22;7983;50.744;7.086;2024-02-23T07:01:51;6.80;99.90
15765;DHT22;7983;50.744;7.086;2024-02-23T07:04:19;6.90;99.90
15765;DHT22;7983;50.744;7.086;2024-02-23T07:06:47;6.90;99.90
15765;DHT22;7983;50.744;7.086;2024-02-23T07:09:13;6.90;99.90
15765;DHT22;7983;50.744;7.086;2024-02-23T07:11:41;6.90;99.90
15765;DHT22;7983;50.744;7.086;2024-02-23T07:14:11;6.90;99.90
15765;DHT22;7983;50.744;7.086;2024-02-23T07:16:40;7.00;99.90
15765;DHT22;7983;50.744;7.086;2024-02-23T07:19:06;7.00;99.90
15765;DHT22;7983;50.744;7.086;2024-02-23T07:21:32;7.00;99.90
15765;DHT22;7983;50.744;7.086;2024-02-23T07:24:03;7.00;99.90
15765;DHT22;7983;50.744;7.086;2024-02-23T07:26:28;7.10;99.90
15765;DHT22;7983;50.744;7.086;2024-02-23T07:28:55;7.20;99.90
15765;DHT22;7983;50.744;7.086;2024-02-23T07:31:20;7.20;99.90
15765;DHT22;7983;50.744;7.086;2024-02-23T07:33:48;7.20;99.90
15765;DHT22;7983;50.744;7.086;2024-02-23T07:36:17;7.30;99.90
15765;DHT22;7983;50.744;7.086;2024-02-23T07:38:47;7.30;99.90
15765;DHT22;7983;50.744;7.086;2024-02-23T07:41:12;7.30;99.90
15765;DHT22;7983;50.744;7.086;2024-02-23T07:43:43;7.40;99.90
15765;DHT22;7983;50.744;7.086;2024-02-23T07:46:12;7.40;99.90
15765;DHT22;7983;50.744;7.086;2024-02-23T07:48:44;7.50;99.90
15765;DHT22;7983;50.744;7.086;2024-02-23T07:51:10;7.50;99.90
15765;DHT22;7983;50.744;7.086;2024-02-23T07:53:36;7.50;99.90
15765;DHT22;7983;50.744;7.086;2024-02-23T07:56:01;7.60;99.90
15765;DHT22;7983;50.744;7.086;2024-02-23T07:58:28;7.60;99.90
15765;DHT22;7983;50.744;7.086;2024-02-23T08:00:53;7.60;99.90
15765;DHT22;7983;50.744;7.086;2024-02-23T08:03:19;7.70;99.90
15765;DHT22;7983;50.744;7.086;2024-02-23T08:05:45;7.70;99.90
15765;DHT22;7983;50.744;7.086;2024-02-23T08:08:10;7.80;99.90
15765;DHT22;7983;50.744;7.086;2024-02-23T08:10:38;7.80;99.90
15765;DHT22;7983;50.744;7.086;2024-02-23T08:13:04;7.90;99.90
15765;DHT22;7983;50.744;7.086;2024-02-23T08:15:30;7.90;99.90
15765;DHT22;7983;50.744;7.086;2024-02-23T08:17:58;7.90;99.90
15765;DHT22;7983;50.744;7.086;2024-02-23T08:20:23;8.10;99.90
15765;DHT22;7983;50.744;7.086;2024-02-23T08:22:51;8.10;99.90
15765;DHT22;7983;50.744;7.086;2024-02-23T08:25:17;8.20;99.90
15765;DHT22;7983;50.744;7.086;2024-02-23T08:27:43;8.20;99.90
15765;DHT22;7983;50.744;7.086;2024-02-23T08:30:12;8.30;99.90
15765;DHT22;7983;50.744;7.086;2024-02-23T08:32:41;8.30;99.90
15765;DHT22;7983;50.744;7.086;2024-02-23T08:35:07;8.40;99.90
15765;DHT22;7983;50.744;7.086;2024-02-23T08:37:38;8.40;99.90
15765;DHT22;7983;50.744;7.086;2024-02-23T08:40:04;8.50;99.90
15765;DHT22;7983;50.744;7.086;2024-02-23T08:42:31;8.60;99.90
15765;DHT22;7983;50.744;7.086;2024-02-23T08:44:57;8.70;99.90
15765;DHT22;7983;50.744;7.086;2024-02-23T08:47:22;8.80;99.90
15765;DHT22;7983;50.744;7.086;2024-02-23T08:49:53;8.80;99.90
15765;DHT22;7983;50.744;7.086;2024-02-23T08:52:19;8.90;99.90
15765;DHT22;7983;50.744;7.086;2024-02-23T08:54:49;9.00;99.90
15765;DHT22;7983;50.744;7.086;2024-02-23T08:57:15;9.10;99.90
15765;DHT22;7983;50.744;7.086;2024-02-23T08:59:46;9.10;99.90
15765;DHT22;7983;50.744;7.086;2024-02-23T09:02:12;9.20;99.90
15765;DHT22;7983;50.744;7.086;2024-02-23T09:04:38;9.20;99.90
15765;DHT22;7983;50.744;7.086;2024-02-23T09:07:04;9.20;99.90
15765;DHT22;7983;50.744;7.086;2024-02-23T09:09:30;9.30;99.90
15765;DHT22;7983;50.744;7.086;2024-02-23T09:12:00;9.20;99.90
15765;DHT22;7983;50.744;7.086;2024-02-23T09:14:28;9.30;99.90
15765;DHT22;7983;50.744;7.086;2024-02-23T09:16:55;9.30;99.90
15765;DHT22;7983;50.744;7.086;2024-02-23T09:19:20;9.20;99.90
15765;DHT22;7983;50.744;7.086;2024-02-23T09:21:48;9.20;99.90
15765;DHT22;7983;50.744;7.086;2024-02-23T09:24:13;9.30;99.90
15765;DHT22;7983;50.744;7.086;2024-02-23T09:26:40;9.30;99.90
15765;DHT22;7983;50.744;7.086;2024-02-23T09:29:06;9.30;99.90
15765;DHT22;7983;50.744;7.086;2024-02-23T09:31:32;9.30;99.90
15765;DHT22;7983;50.744;7.086;2024-02-23T09:33:58;9.40;99.90
15765;DHT22;7983;50.744;7.086;2024-02-23T09:36:27;9.40;99.90
15765;DHT22;7983;50.744;7.086;2024-02-23T09:38:55;9.40;99.90
15765;DHT22;7983;50.744;7.086;2024-02-23T09:41:22;9.50;99.90
15765;DHT22;7983;50.744;7.086;2024-02-23T09:43:50;9.50;99.90
15765;DHT22;7983;50.744;7.086;2024-02-23T09:46:16;9.60;99.90
15765;DHT22;7983;50.744;7.086;2024-02-23T09:48:44;9.50;99.90
15765;DHT22;7983;50.744;7.086;2024-02-23T09:51:13;9.60;99.90
15765;DHT22;7983;50.744;7.086;2024-02-23T09:53:41;9.60;99.90
15765;DHT22;7983;50.744;7.086;2024-02-23T09:56:09;9.60;99.90
15765;DHT22;7983;50.744;7.086;2024-02-23T09:58:36;9.60;99.90
15765;DHT22;7983;50.744;7.086;2024-02-23T10:01:04;9.60;99.90
15765;DHT22;7983;50.744;7.086;2024-02-23T10:03:30;9.70;99.90
15765;DHT22;7983;50.744;7.086;2024-02-23T10:05:59;9.60;99.90
15765;DHT22;7983;50.744;7.086;2024-02-23T10:08:29;9.70;99.90
15765;DHT22;7983;50.744;7.086;2024-02-23T10:10:57;9.70;99.90
15765;DHT22;7983;50.744;7.086;2024-02-23T10:13:24;9.70;99.90
15765;DHT22;7983;50.744;7.086;2024-02-23T10:15:54;9.70;99.90
15765;DHT22;7983;50.744;7.086;2024-02-23T10:18:24;9.70;99.90
15765;DHT22;7983;50.744;7.086;2024-02-23T10:20:52;10.00;99.90
15765;DHT22;7983;50.744;7.086;2024-02-23T10:23:21;10.30;99.90
15765;DHT22;7983;50.744;7.086;2024-02-23T10:25:47;10.40;99.90
15765;DHT22;7983;50.744;7.086;2024-02-23T10:28:13;10.40;99.90
15765;DHT22;7983;50.744;7.086;2024-02-23T10:30:39;10.60;99.90
15765;DHT22;7983;50.744;7.086;2024-02-23T10:33:05;10.80;99.90
15765;DHT22;7983;50.744;7.086;2024-02-23T10:35:37;11.10;99.90
15765;DHT22;7983;50.744;7.086;2024-02-23T10:38:08;11.30;99.90
15765;DHT22;7983;50.744;7.086;2024-02-23T10:40:41;11.50;99.90
15765;DHT22;7983;50.744;7.086;2024-02-23T10:43:12;11.60;99.90
15765;DHT22;7983;50.744;7.086;2024-02-23T10:45:49;11.80;99.90
15765;DHT22;7983;50.744;7.086;2024-02-23T10:48:15;11.90;99.90
15765;DHT22;7983;50.744;7.086;2024-02-23T10:50:41;12.00;99.90
15765;DHT22;7983;50.744;7.086;2024-02-23T10:53:12;12.20;99.90
15765;DHT22;7983;50.744;7.086;2024-02-23T10:55:40;12.20;99.90
15765;DHT22;7983;50.744;7.086;2024-02-23T10:58:09;12.20;99.90
15765;DHT22;7983;50.744;7.086;2024-02-23T11:00:37;12.30;99.90
15765;DHT22;7983;50.744;7.086;2024-02-23T11:03:08;12.30;99.90
15765;DHT22;7983;50.744;7.086;2024-02-23T11:05:37;12.10;99.90
15765;DHT22;7983;50.744;7.086;2024-02-23T11:08:06;12.00;99.90
15765;DHT22;7983;50.744;7.086;2024-02-23T11:10:34;11.80;99.90
15765;DHT22;7983;50.744;7.086;2024-02-23T11:13:08;11.70;99.90
15765;DHT22;7983;50.744;7.086;2024-02-23T11:15:34;11.60;99.90
15765;DHT22;7983;50.744;7.086;2024-02-23T11:18:21;11.50;99.90
15765;DHT22;7983;50.744;7.086;2024-02-23T11:20:56;11.50;99.90
15765;DHT22;7983;50.744;7.086;2024-02-23T11:23:22;11.50;99.90
15765;DHT22;7983;50.744;7.086;2024-02-23T11:26:04;11.60;99.90
15765;DHT22;7983;50.744;7.086;2024-02-23T11:28:32;11.70;99.90
15765;DHT22;7983;50.744;7.086;2024-02-23T11:30:57;11.60;99.90
15765;DHT22;7983;50.744;7.086;2024-02-23T11:33:34;11.60;99.90
15765;DHT22;7983;50.744;7.086;2024-02-23T11:36:10;11.50;99.90
15765;DHT22;7983;50.744;7.086;2024-02-23T11:38:36;11.40;99.90
15765;DHT22;7983;50.744;7.086;2024-02-23T11:41:04;11.30;99.90
15765;DHT22;7983;50.744;7.086;2024-02-23T11:43:30;11.30;99.90
15765;DHT22;7983;50.744;7.086;2024-02-23T11:46:01;11.40;99.90
15765;DHT22;7983;50.744;7.086;2024-02-23T11:48:26;11.40;99.90
15765;DHT22;7983;50.744;7.086;2024-02-23T11:50:52;11.40;99.90
15765;DHT22;7983;50.744;7.086;2024-02-23T11:53:18;11.50;99.90
15765;DHT22;7983;50.744;7.086;2024-02-23T11:55:46;11.50;99.90
15765;DHT22;7983;50.744;7.086;2024-02-23T11:58:13;11.60;99.90
15765;DHT22;7983;50.744;7.086;2024-02-23T12:00:39;11.60;99.90
15765;DHT22;7983;50.744;7.086;2024-02-23T12:03:07;11.60;99.90
15765;DHT22;7983;50.744;7.086;2024-02-23T12:05:33;11.60;99.90
15765;DHT22;7983;50.744;7.086;2024-02-23T12:07:59;11.60;99.90
15765;DHT22;7983;50.744;7.086;2024-02-23T12:10:27;11.60;99.90
15765;DHT22;7983;50.744;7.086;2024-02-23T12:12:57;11.60;99.90
15765;DHT22;7983;50.744;7.086;2024-02-23T12:15:27;11.50;99.90
15765;DHT22;7983;50.744;7.086;2024-02-23T12:17:54;11.50;99.90
15765;DHT22;7983;50.744;7.086;2024-02-23T12:20:25;11.40;99.90
15765;DHT22;7983;50.744;7.086;2024-02-23T12:22:56;11.40;99.90
15765;DHT22;7983;50.744;7.086;2024-02-23T12:25:22;11.40;99.90
15765;DHT22;7983;50.744;7.086;2024-02-23T12:27:54;11.40;99.90
15765;DHT22;7983;50.744;7.086;2024-02-23T12:30:21;11.50;99.90
15765;DHT22;7983;50.744;7.086;2024-02-23T12:32:46;11.70;99.90
15765;DHT22;7983;50.744;7.086;2024-02-23T12:35:14;11.80;99.90
15765;DHT22;7983;50.744;7.086;2024-02-23T12:37:43;12.00;99.90
15765;DHT22;7983;50.744;7.086;2024-02-23T12:40:09;12.00;99.90
15765;DHT22;7983;50.744;7.086;2024-02-23T12:42:35;12.00;99.90
15765;DHT22;7983;50.744;7.086;2024-02-23T12:45:03;12.10;99.90
15765;DHT22;7983;50.744;7.086;2024-02-23T12:47:32;12.00;99.90
15765;DHT22;7983;50.744;7.086;2024-02-23T12:50:00;12.00;99.90
15765;DHT22;7983;50.744;7.086;2024-02-23T12:52:28;11.90;99.90
15765;DHT22;7983;50.744;7.086;2024-02-23T12:54:53;11.90;99.90
15765;DHT22;7983;50.744;7.086;2024-02-23T12:57:19;11.90;99.90
15765;DHT22;7983;50.744;7.086;2024-02-23T12:59:49;11.80;99.90
15765;DHT22;7983;50.744;7.086;2024-02-23T13:02:17;11.80;99.90
15765;DHT22;7983;50.744;7.086;2024-02-23T13:04:43;11.80;99.90
15765;DHT22;7983;50.744;7.086;2024-02-23T13:07:15;11.80;99.90
15765;DHT22;7983;50.744;7.086;2024-02-23T13:09:42;11.80;99.90
15765;DHT22;7983;50.744;7.086;2024-02-23T13:12:08;11.90;99.90
15765;DHT22;7983;50.744;7.086;2024-02-23T13:14:36;12.00;99.90
15765;DHT22;7983;50.744;7.086;2024-02-23T13:17:02;12.10;99.90
15765;DHT22;7983;50.744;7.086;2024-02-23T13:19:29;12.10;99.90
15765;DHT22;7983;50.744;7.086;2024-02-23T13:21:59;12.20;99.90
15765;DHT22;7983;50.744;7.086;2024-02-23T13:24:26;12.20;99.90
15765;DHT22;7983;50.744;7.086;2024-02-23T13:26:56;12.30;99.90
15765;DHT22;7983;50.744;7.086;2024-02-23T13:29:22;12.40;99.90
15765;DHT22;7983;50.744;7.086;2024-02-23T13:31:47;12.60;99.90
15765;DHT22;7983;50.744;7.086;2024-02-23T13:34:13;12.70;99.90
15765;DHT22;7983;50.744;7.086;2024-02-23T13:36:42;12.80;99.90
15765;DHT22;7983;50.744;7.086;2024-02-23T13:39:08;12.80;99.90
15765;DHT22;7983;50.744;7.086;2024-02-23T13:41:34;12.70;99.90
15765;DHT22;7983;50.744;7.086;2024-02-23T13:44:00;12.60;99.90
15765;DHT22;7983;50.744;7.086;2024-02-23T13:46:25;12.50;99.90
15765;DHT22;7983;50.744;7.086;2024-02-23T13:49:03;12.40;99.90
15765;DHT22;7983;50.744;7.086;2024-02-23T13:51:33;12.30;99.90
15765;DHT22;7983;50.744;7.086;2024-02-23T13:54:01;12.20;99.90
15765;DHT22;7983;50.744;7.086;2024-02-23T13:56:31;12.30;99.90
15765;DHT22;7983;50.744;7.086;2024-02-23T13:58:59;12.40;99.90
15765;DHT22;7983;50.744;7.086;2024-02-23T14:01:27;12.60;99.90
15765;DHT22;7983;50.744;7.086;2024-02-23T14:03:53;12.70;99.90
15765;DHT22;7983;50.744;7.086;2024-02-23T14:06:20;12.70;99.90
15765;DHT22;7983;50.744;7.086;2024-02-23T14:08:49;12.60;99.90
15765;DHT22;7983;50.744;7.086;2024-02-23T14:11:17;12.60;99.90
15765;DHT22;7983;50.744;7.086;2024-02-23T14:13:47;12.60;99.90
15765;DHT22;7983;50.744;7.086;2024-02-23T14:16:15;12.50;99.90
15765;DHT22;7983;50.744;7.086;2024-02-23T14:18:43;12.40;99.90
15765;DHT22;7983;50.744;7.086;2024-02-23T14:21:10;12.40;99.90
15765;DHT22;7983;50.744;7.086;2024-02-23T14:23:39;12.40;99.90
15765;DHT22;7983;50.744;7.086;2024-02-23T14:26:07;12.40;99.90
15765;DHT22;7983;50.744;7.086;2024-02-23T14:28:32;12.40;99.90
15765;DHT22;7983;50.744;7.086;2024-02-23T14:30:58;12.40;99.90
15765;DHT22;7983;50.744;7.086;2024-02-23T14:33:24;12.40;99.90
15765;DHT22;7983;50.744;7.086;2024-02-23T14:35:50;12.40;99.90
15765;DHT22;7983;50.744;7.086;2024-02-23T14:38:16;12.40;99.90
15765;DHT22;7983;50.744;7.086;2024-02-23T14:40:44;12.50;99.90
15765;DHT22;7983;50.744;7.086;2024-02-23T14:43:09;12.60;99.90
15765;DHT22;7983;50.744;7.086;2024-02-23T14:45:35;12.60;99.90
15765;DHT22;7983;50.744;7.086;2024-02-23T14:48:01;12.50;99.90
15765;DHT22;7983;50.744;7.086;2024-02-23T14:50:29;12.60;99.90
15765;DHT22;7983;50.744;7.086;2024-02-23T14:52:55;12.60;99.90
15765;DHT22;7983;50.744;7.086;2024-02-23T14:55:24;12.60;99.90
15765;DHT22;7983;50.744;7.086;2024-02-23T14:57:52;12.70;99.90
15765;DHT22;7983;50.744;7.086;2024-02-23T15:00:19;12.90;99.90
15765;DHT22;7983;50.744;7.086;2024-02-23T15:02:48;12.90;99.90
15765;DHT22;7983;50.744;7.086;2024-02-23T15:05:13;13.00;99.90
15765;DHT22;7983;50.744;7.086;2024-02-23T15:07:39;13.00;99.90
15765;DHT22;7983;50.744;7.086;2024-02-23T15:10:09;13.10;99.90
15765;DHT22;7983;50.744;7.086;2024-02-23T15:12:35;13.00;99.90
15765;DHT22;7983;50.744;7.086;2024-02-23T15:15:04;13.10;99.90
15765;DHT22;7983;50.744;7.086;2024-02-23T15:17:31;13.10;99.90
15765;DHT22;7983;50.744;7.086;2024-02-23T15:19:57;13.00;99.90
15765;DHT22;7983;50.744;7.086;2024-02-23T15:22:27;12.90;99.90
15765;DHT22;7983;50.744;7.086;2024-02-23T15:25:00;12.80;99.90
15765;DHT22;7983;50.744;7.086;2024-02-23T15:27:25;12.70;99.90
15765;DHT22;7983;50.744;7.086;2024-02-23T15:29:51;12.60;99.90
15765;DHT22;7983;50.744;7.086;2024-02-23T15:32:17;12.50;99.90
15765;DHT22;7983;50.744;7.086;2024-02-23T15:34:45;12.40;99.90
15765;DHT22;7983;50.744;7.086;2024-02-23T15:37:11;12.40;99.90
15765;DHT22;7983;50.744;7.086;2024-02-23T15:39:37;12.30;99.90
15765;DHT22;7983;50.744;7.086;2024-02-23T15:42:04;12.20;99.90
15765;DHT22;7983;50.744;7.086;2024-02-23T15:44:33;12.20;99.90
15765;DHT22;7983;50.744;7.086;2024-02-23T15:46:58;12.10;99.90
15765;DHT22;7983;50.744;7.086;2024-02-23T15:49:24;12.00;99.90
15765;DHT22;7983;50.744;7.086;2024-02-23T15:51:52;12.00;99.90
15765;DHT22;7983;50.744;7.086;2024-02-23T15:54:18;11.90;99.90
15765;DHT22;7983;50.744;7.086;2024-02-23T15:56:46;11.80;99.90